createdAt,value
2023-03-03T00:01:52.601Z,96236.91
2023-03-03T00:04:55.304Z,96243.09
2023-03-03T00:07:56.942Z,96245.94
2023-03-03T00:11:01.263Z,96239.91
2023-03-03T00:14:22.085Z,96235.88
2023-03-03T00:17:30.107Z,96242.84
2023-03-03T00:20:40.211Z,96237.75
2023-03-03T00:23:43.376Z,96243.09
2023-03-03T00:27:01.094Z,96238.91
2023-03-03T00:30:17.565Z,96244.22
2023-03-03T00:33:46.469Z,96238.22
2023-03-03T00:36:51.817Z,96229.50
2023-03-03T00:39:53.481Z,96233.06
2023-03-03T00:43:00.085Z,96229.78
2023-03-03T00:46:02.200Z,96235.13
2023-03-03T00:49:23.253Z,96245.72
2023-03-03T00:52:29.604Z,96247.50
2023-03-03T00:55:33.072Z,96244.03
2023-03-03T00:58:35.912Z,96244.22
2023-03-03T01:01:38.104Z,96235.59
2023-03-03T01:04:41.563Z,96245.25
2023-03-03T01:07:43.806Z,96241.00
2023-03-03T01:10:51.116Z,96238.50
2023-03-03T01:13:53.364Z,96239.44
2023-03-03T01:16:57.211Z,96240.44
2023-03-03T01:19:59.486Z,96223.41
2023-03-03T01:23:02.474Z,96231.94
2023-03-03T01:26:07.762Z,96227.63
2023-03-03T01:29:09.833Z,96219.84
2023-03-03T01:32:12.813Z,96213.91
2023-03-03T01:35:14.669Z,96223.47
2023-03-03T01:38:17.608Z,96221.91
2023-03-03T01:41:19.966Z,96219.28
2023-03-03T01:44:21.604Z,96222.84
2023-03-03T01:47:34.133Z,96226.38
2023-03-03T01:50:45.708Z,96229.94
2023-03-03T01:53:52.690Z,96230.03
2023-03-03T01:57:02.850Z,96224.06
2023-03-03T02:00:06.827Z,96237.16
2023-03-03T02:03:14.225Z,96231.16
2023-03-03T02:06:20.356Z,96230.41
2023-03-03T02:09:39.459Z,96226.94
2023-03-03T02:12:53.969Z,96222.72
2023-03-03T02:16:00.022Z,96227.13
2023-03-03T02:19:10.367Z,96228.97
2023-03-03T02:22:16.335Z,96222.91
2023-03-03T02:25:27.215Z,96214.25
2023-03-03T02:28:33.386Z,96208.19
2023-03-03T02:31:39.386Z,96203.13
2023-03-03T02:34:50.439Z,96205.00
2023-03-03T02:37:52.662Z,96197.41
2023-03-03T02:41:28.065Z,96206.00
2023-03-03T02:44:33.161Z,96207.91
2023-03-03T02:47:36.241Z,96206.28
2023-03-03T02:50:38.967Z,96201.13
2023-03-03T02:53:41.811Z,96214.22
2023-03-03T02:56:44.829Z,96209.06
2023-03-03T02:59:46.491Z,96210.13
2023-03-03T03:02:52.163Z,96212.66
2023-03-03T03:05:54.735Z,96211.03
2023-03-03T03:08:58.498Z,96212.91
2023-03-03T03:12:02.892Z,96205.03
2023-03-03T03:15:10.058Z,96197.47
2023-03-03T03:18:11.687Z,96203.34
2023-03-03T03:21:14.001Z,96201.09
2023-03-03T03:24:18.208Z,96205.03
2023-03-03T03:27:27.398Z,96202.34
2023-03-03T03:30:31.641Z,96204.13
2023-03-03T03:33:34.719Z,96204.78
2023-03-03T03:36:39.817Z,96207.91
2023-03-03T03:39:42.974Z,96213.88
2023-03-03T03:42:45.013Z,96219.88
2023-03-03T03:45:47.445Z,96224.75
2023-03-03T03:48:50.319Z,96214.25
2023-03-03T03:51:54.693Z,96217.28
2023-03-03T03:55:01.217Z,96223.09
2023-03-03T03:58:04.519Z,96221.22
2023-03-03T04:01:08.741Z,96219.06
2023-03-03T04:04:17.438Z,96225.00
2023-03-03T04:07:20.420Z,96228.19
2023-03-03T04:10:22.713Z,96224.41
2023-03-03T04:13:24.707Z,96225.09
2023-03-03T04:16:26.318Z,96222.09
2023-03-03T04:19:28.023Z,96216.66
2023-03-03T04:22:36.023Z,96216.28
2023-03-03T04:25:42.351Z,96221.34
2023-03-03T04:28:49.705Z,96221.00
2023-03-03T04:31:52.566Z,96222.47
2023-03-03T04:35:07.303Z,96217.03
2023-03-03T04:38:11.326Z,96218.53
2023-03-03T04:41:13.716Z,96214.75
2023-03-03T04:44:16.385Z,96217.13
2023-03-03T04:47:19.724Z,96222.16
2023-03-03T04:50:22.865Z,96218.50
2023-03-03T04:53:25.239Z,96205.19
2023-03-03T04:56:29.405Z,96211.84
2023-03-03T04:59:31.640Z,96210.81
2023-03-03T05:02:34.339Z,96214.09
2023-03-03T05:05:36.930Z,96213.91
2023-03-03T05:08:40.010Z,96210.31
2023-03-03T05:11:41.600Z,96207.50
2023-03-03T05:14:43.317Z,96206.47
2023-03-03T05:17:45.713Z,96214.13
2023-03-03T05:20:48.384Z,96225.31
2023-03-03T05:23:50.083Z,96208.78
2023-03-03T05:26:51.684Z,96225.84
2023-03-03T05:29:53.754Z,96220.59
2023-03-03T05:32:55.396Z,96230.94
2023-03-03T05:35:57.781Z,96229.88
2023-03-03T05:39:03.119Z,96239.34
2023-03-03T05:42:05.331Z,96240.28
2023-03-03T05:45:07.920Z,96244.41
2023-03-03T05:48:10.367Z,96237.06
2023-03-03T05:51:13.032Z,96249.06
2023-03-03T05:54:14.744Z,96237.06
2023-03-03T05:57:16.782Z,96242.03
2023-03-03T06:00:19.052Z,96253.06
2023-03-03T06:03:21.338Z,96259.84
2023-03-03T06:06:22.994Z,96251.03
2023-03-03T06:09:26.309Z,96259.53
2023-03-03T06:12:31.205Z,96261.13
2023-03-03T06:15:33.849Z,96266.22
2023-03-03T06:18:37.516Z,96261.13
2023-03-03T06:21:39.152Z,96274.63
2023-03-03T06:24:42.557Z,96261.47
2023-03-03T06:27:44.417Z,96268.03
2023-03-03T06:30:46.944Z,96270.56
2023-03-03T06:33:48.663Z,96274.75
2023-03-03T06:36:50.867Z,96278.06
2023-03-03T06:39:53.208Z,96277.84
2023-03-03T06:42:55.430Z,96286.38
2023-03-03T06:45:57.574Z,96288.94
2023-03-03T06:49:01.968Z,96292.94
2023-03-03T06:52:13.663Z,96278.94
2023-03-03T06:55:23.281Z,96296.00
2023-03-03T06:58:27.629Z,96300.94
2023-03-03T07:01:36.771Z,96307.81
2023-03-03T07:04:39.612Z,96297.81
2023-03-03T07:07:42.772Z,96301.09
2023-03-03T07:10:47.697Z,96308.69
2023-03-03T07:13:55.361Z,96297.88
2023-03-03T07:17:02.521Z,96301.13
2023-03-03T07:20:19.442Z,96295.75
2023-03-03T07:23:28.386Z,96304.63
2023-03-03T07:26:35.325Z,96305.16
2023-03-03T07:29:41.789Z,96305.78
2023-03-03T07:32:46.179Z,96312.66
2023-03-03T07:35:48.363Z,96307.16
2023-03-03T07:38:57.762Z,96306.63
2023-03-03T07:42:21.813Z,96309.91
2023-03-03T07:45:34.838Z,96308.75
2023-03-03T07:48:42.434Z,96310.25
2023-03-03T07:51:44.732Z,96314.34
2023-03-03T07:54:47.389Z,96315.00
2023-03-03T07:57:52.079Z,96309.50
2023-03-03T08:01:31.416Z,96304.03
2023-03-03T08:04:42.567Z,96316.88
2023-03-03T08:07:44.323Z,96323.59
2023-03-03T08:10:49.614Z,96317.38
2023-03-03T08:13:51.752Z,96321.50
2023-03-03T08:16:53.625Z,96322.97
2023-03-03T08:19:56.357Z,96332.38
2023-03-03T08:22:58.465Z,96332.97
2023-03-03T08:26:03.178Z,96337.97
2023-03-03T08:29:07.530Z,96347.22
2023-03-03T08:32:11.163Z,96328.53
2023-03-03T08:35:13.864Z,96336.13
2023-03-03T08:38:19.917Z,96337.50
2023-03-03T08:41:22.258Z,96336.44
2023-03-03T08:44:24.065Z,96327.47
2023-03-03T08:47:25.946Z,96326.91
2023-03-03T08:50:29.747Z,96338.94
2023-03-03T08:53:34.470Z,96335.34
2023-03-03T08:56:38.622Z,96345.34
2023-03-03T08:59:40.855Z,96345.13
2023-03-03T09:02:44.358Z,96344.94
2023-03-03T09:05:46.737Z,96337.63
2023-03-03T09:08:49.335Z,96344.47
2023-03-03T09:11:58.613Z,96336.47
2023-03-03T09:15:15.475Z,96349.72
2023-03-03T09:18:22.466Z,96358.13
2023-03-03T09:21:36.385Z,96366.13
2023-03-03T09:24:42.362Z,96356.19
2023-03-03T09:27:45.168Z,96360.06
2023-03-03T09:30:49.882Z,96374.38
2023-03-03T09:33:52.034Z,96371.94
2023-03-03T09:36:55.562Z,96379.03
2023-03-03T09:39:58.276Z,96374.16
2023-03-03T09:43:14.130Z,96379.50
2023-03-03T09:46:54.033Z,96371.00
2023-03-03T09:50:18.518Z,96372.81
2023-03-03T09:53:48.593Z,96370.31
2023-03-03T09:57:15.558Z,96377.56
2023-03-03T10:00:35.187Z,96377.94
2023-03-03T10:04:24.509Z,96381.69
2023-03-03T10:07:39.861Z,96379.25
2023-03-03T10:11:16.006Z,96377.97
2023-03-03T10:14:37.297Z,96378.34
2023-03-03T10:18:20.441Z,96368.97
2023-03-03T10:21:35.172Z,96372.69
2023-03-03T10:24:47.710Z,96378.47
2023-03-03T10:27:59.606Z,96378.81
2023-03-03T10:31:30.105Z,96379.66
2023-03-03T10:35:04.478Z,96377.97
2023-03-03T10:38:07.053Z,96385.41
2023-03-03T10:41:26.957Z,96390.59
2023-03-03T10:45:02.296Z,96387.34
2023-03-03T10:48:43.172Z,96391.19
2023-03-03T10:52:24.956Z,96394.56
2023-03-03T10:55:42.886Z,96385.75
2023-03-03T10:59:02.093Z,96390.31
2023-03-03T11:02:22.791Z,96385.91
2023-03-03T11:06:05.928Z,96387.81
2023-03-03T11:09:26.007Z,96393.22
2023-03-03T11:12:47.873Z,96389.47
2023-03-03T11:15:58.692Z,96392.44
2023-03-03T11:19:48.492Z,96387.63
2023-03-03T11:23:08.722Z,96388.81
2023-03-03T11:26:34.244Z,96390.69
2023-03-03T11:29:45.175Z,96378.84
2023-03-03T11:33:32.979Z,96384.38
2023-03-03T11:36:41.863Z,96374.66
2023-03-03T11:39:47.099Z,96375.84
2023-03-03T11:43:05.856Z,96368.22
2023-03-03T11:46:24.020Z,96358.41
2023-03-03T11:49:55.152Z,96358.38
2023-03-03T11:53:14.930Z,96352.41
2023-03-03T11:56:25.316Z,96341.84
2023-03-03T12:00:20.921Z,96338.47
2023-03-03T12:03:43.026Z,96328.75
2023-03-03T12:07:01.881Z,96337.16
2023-03-03T12:10:21.821Z,96337.03
2023-03-03T12:13:51.619Z,96346.41
2023-03-03T12:17:01.480Z,96348.53
2023-03-03T12:20:26.003Z,96354.16
2023-03-03T12:23:40.685Z,96349.09
2023-03-03T12:27:02.163Z,96342.53
2023-03-03T12:30:23.075Z,96347.31
2023-03-03T12:33:28.181Z,96343.22
2023-03-03T12:36:55.440Z,96342.97
2023-03-03T12:40:22.431Z,96339.34
2023-03-03T12:43:31.773Z,96332.47
2023-03-03T12:47:02.057Z,96329.69
2023-03-03T12:50:25.519Z,96319.91
2023-03-03T12:53:49.670Z,96319.63
2023-03-03T12:57:00.863Z,96327.31
2023-03-03T13:00:16.599Z,96320.06
2023-03-03T13:03:56.569Z,96321.59
2023-03-03T13:07:06.801Z,96325.53
2023-03-03T13:10:28.424Z,96331.53
2023-03-03T13:13:54.401Z,96324.13
2023-03-03T13:17:12.992Z,96330.00
2023-03-03T13:20:51.994Z,96330.59
2023-03-03T13:24:03.013Z,96328.47
2023-03-03T13:27:30.376Z,96322.91
2023-03-03T13:30:37.495Z,96316.47
2023-03-03T13:33:49.041Z,96323.19
2023-03-03T13:36:59.172Z,96316.75
2023-03-03T13:40:19.582Z,96313.41
2023-03-03T13:43:30.453Z,96311.16
2023-03-03T13:47:07.888Z,96309.34
2023-03-03T13:50:23.246Z,96299.66
2023-03-03T13:54:08.260Z,96300.94
2023-03-03T13:57:25.026Z,96300.50
2023-03-03T14:00:53.796Z,96294.47
2023-03-03T14:04:04.823Z,96291.53
2023-03-03T14:07:16.621Z,96286.59
2023-03-03T14:10:28.190Z,96281.41
2023-03-03T14:14:01.266Z,96276.88
2023-03-03T14:17:25.559Z,96276.88
2023-03-03T14:20:30.598Z,96275.69
2023-03-03T14:24:02.568Z,96275.25
2023-03-03T14:27:23.526Z,96277.31
2023-03-03T14:30:52.098Z,96283.31
2023-03-03T14:34:01.465Z,96274.31
2023-03-03T14:37:29.094Z,96273.50
2023-03-03T14:40:33.521Z,96264.41
2023-03-03T14:43:46.733Z,96265.50
2023-03-03T14:47:03.183Z,96265.88
2023-03-03T14:50:30.604Z,96264.16
2023-03-03T14:53:38.512Z,96261.88
2023-03-03T14:56:57.934Z,96265.94
2023-03-03T15:00:26.885Z,96265.19
2023-03-03T15:03:28.753Z,96260.38
2023-03-03T15:06:52.075Z,96268.00
2023-03-03T15:09:53.777Z,96271.44
2023-03-03T15:12:55.748Z,96266.72
2023-03-03T15:16:00.693Z,96274.41
2023-03-03T15:19:36.028Z,96274.41
2023-03-03T15:23:23.718Z,96269.41
2023-03-03T15:26:26.253Z,96271.41
2023-03-03T15:30:16.873Z,96268.59
2023-03-03T15:33:33.684Z,96268.59
2023-03-03T15:37:10.924Z,96276.28
2023-03-03T15:40:39.601Z,96269.91
2023-03-03T15:44:24.777Z,96279.16
2023-03-03T15:47:42.571Z,96273.19
2023-03-03T15:50:52.843Z,96272.44
2023-03-03T15:54:13.329Z,96275.69
2023-03-03T15:58:00.554Z,96273.66
2023-03-03T16:01:20.371Z,96275.25
2023-03-03T16:04:28.440Z,96267.00
2023-03-03T16:07:59.712Z,96277.59
2023-03-03T16:11:10.879Z,96286.06
2023-03-03T16:14:55.269Z,96281.22
2023-03-03T16:18:19.016Z,96284.91
2023-03-03T16:21:32.058Z,96282.75
2023-03-03T16:24:52.136Z,96282.09
2023-03-03T16:28:22.897Z,96284.25
2023-03-03T16:31:45.677Z,96285.00
2023-03-03T16:35:06.041Z,96294.84
2023-03-03T16:38:22.642Z,96297.25
2023-03-03T16:41:39.623Z,96300.50
2023-03-03T16:45:09.392Z,96306.97
2023-03-03T16:48:25.717Z,96313.69
2023-03-03T16:51:42.433Z,96318.44
2023-03-03T16:54:54.526Z,96325.81
2023-03-03T16:58:21.287Z,96327.06
2023-03-03T17:01:50.146Z,96334.75
2023-03-03T17:05:17.108Z,96338.47
2023-03-03T17:08:24.885Z,96336.19
2023-03-03T17:12:03.927Z,96347.16
2023-03-03T17:15:05.499Z,96347.53
2023-03-03T17:18:37.095Z,96356.69
2023-03-03T17:22:18.131Z,96360.63
2023-03-03T17:25:36.641Z,96350.59
2023-03-03T17:29:05.294Z,96363.06
2023-03-03T17:32:25.823Z,96365.91
2023-03-03T17:35:43.845Z,96366.94
2023-03-03T17:39:07.432Z,96374.06
2023-03-03T17:42:39.007Z,96377.72
2023-03-03T17:45:47.412Z,96381.13
2023-03-03T17:49:27.954Z,96381.16
2023-03-03T17:52:42.601Z,96390.06
2023-03-03T17:56:24.049Z,96398.06
2023-03-03T18:00:00.303Z,96395.44
2023-03-03T18:03:23.187Z,96389.28
2023-03-03T18:06:41.088Z,96391.81
2023-03-03T18:10:21.656Z,96403.34
2023-03-03T18:13:24.532Z,96398.75
2023-03-03T18:16:35.360Z,96403.84
2023-03-03T18:19:59.193Z,96399.25
2023-03-03T18:23:23.426Z,96406.06
2023-03-03T18:26:42.543Z,96406.91
2023-03-03T18:30:08.299Z,96414.56
2023-03-03T18:33:12.866Z,96406.38
2023-03-03T18:36:27.573Z,96404.41
2023-03-03T18:39:50.093Z,96413.88
2023-03-03T18:42:53.915Z,96422.25
2023-03-03T18:45:56.177Z,96418.38
2023-03-03T18:49:04.616Z,96428.69
2023-03-03T18:52:23.708Z,96435.38
2023-03-03T18:55:26.677Z,96425.34
2023-03-03T18:58:34.092Z,96430.13
2023-03-03T19:01:43.457Z,96429.75
2023-03-03T19:04:55.555Z,96422.38
2023-03-03T19:08:04.432Z,96432.53
2023-03-03T19:11:25.981Z,96432.25
2023-03-03T19:14:30.452Z,96442.28
2023-03-03T19:17:37.968Z,96439.94
2023-03-03T19:20:52.287Z,96438.59
2023-03-03T19:24:00.014Z,96448.75
2023-03-03T19:27:04.557Z,96444.75
2023-03-03T19:30:22.904Z,96453.91
2023-03-03T19:33:30.918Z,96462.25
2023-03-03T19:36:54.851Z,96453.94
2023-03-03T19:40:13.772Z,96457.00
2023-03-03T19:43:35.234Z,96457.44
2023-03-03T19:46:36.922Z,96463.13
2023-03-03T19:50:09.877Z,96463.56
2023-03-03T19:53:25.214Z,96473.69
2023-03-03T19:56:44.081Z,96472.28
2023-03-03T19:59:58.566Z,96472.69
2023-03-03T20:03:34.080Z,96469.53
2023-03-03T20:06:56.438Z,96467.50
2023-03-03T20:10:07.146Z,96467.06
2023-03-03T20:13:32.446Z,96461.47
2023-03-03T20:16:43.130Z,96468.53
2023-03-03T20:20:03.939Z,96478.53
2023-03-03T20:23:23.293Z,96470.94
2023-03-03T20:26:39.069Z,96480.81
2023-03-03T20:30:03.936Z,96476.59
2023-03-03T20:33:08.663Z,96474.28
2023-03-03T20:36:16.458Z,96480.69
2023-03-03T20:39:33.228Z,96474.78
2023-03-03T20:42:47.167Z,96470.75
2023-03-03T20:46:00.301Z,96481.47
2023-03-03T20:49:09.060Z,96477.34
2023-03-03T20:52:40.327Z,96484.72
2023-03-03T20:55:59.888Z,96483.97
2023-03-03T20:59:01.439Z,96488.56
2023-03-03T21:02:33.889Z,96484.38
2023-03-03T21:05:35.548Z,96486.41
2023-03-03T21:08:55.048Z,96489.19
2023-03-03T21:11:58.855Z,96493.13
2023-03-03T21:15:01.668Z,96496.72
2023-03-03T21:18:20.708Z,96499.63
2023-03-03T21:21:25.628Z,96494.75
2023-03-03T21:24:50.459Z,96501.78
2023-03-03T21:27:53.847Z,96495.31
2023-03-03T21:31:02.065Z,96502.19
2023-03-03T21:34:18.274Z,96489.41
2023-03-03T21:37:55.250Z,96507.06
2023-03-03T21:41:01.603Z,96505.56
2023-03-03T21:44:36.148Z,96510.06
2023-03-03T21:47:37.776Z,96504.28
2023-03-03T21:50:42.714Z,96503.69
2023-03-03T21:53:45.881Z,96502.09
2023-03-03T21:56:50.042Z,96504.06
2023-03-03T21:59:52.301Z,96500.97
2023-03-03T22:02:55.311Z,96510.56
2023-03-03T22:05:58.396Z,96504.66
2023-03-03T22:09:00.097Z,96503.03
2023-03-03T22:12:01.761Z,96504.06
2023-03-03T22:15:04.123Z,96512.16
2023-03-03T22:18:05.742Z,96513.09
2023-03-03T22:21:08.422Z,96515.88
2023-03-03T22:24:10.196Z,96513.47
2023-03-03T22:27:12.195Z,96518.88
2023-03-03T22:30:16.684Z,96515.50
2023-03-03T22:33:18.276Z,96519.16
2023-03-03T22:36:20.868Z,96519.25
2023-03-03T22:39:23.352Z,96519.34
2023-03-03T22:42:26.051Z,96518.59
2023-03-03T22:45:27.668Z,96515.13
2023-03-03T22:48:30.146Z,96501.31
2023-03-03T22:51:31.835Z,96513.59
2023-03-03T22:54:33.439Z,96512.97
2023-03-03T22:57:35.154Z,96518.31
2023-03-03T23:00:39.903Z,96514.81
2023-03-03T23:03:41.526Z,96508.88
2023-03-03T23:06:47.388Z,96508.88
2023-03-03T23:09:48.964Z,96509.84
2023-03-03T23:12:50.558Z,96511.63
2023-03-03T23:15:52.318Z,96513.41
2023-03-03T23:18:53.980Z,96509.25
2023-03-03T23:21:55.598Z,96511.97
2023-03-03T23:24:57.195Z,96502.41
2023-03-03T23:27:58.850Z,96501.75
2023-03-03T23:31:00.486Z,96505.22
2023-03-03T23:34:02.170Z,96506.22
2023-03-03T23:37:03.761Z,96502.09
2023-03-03T23:40:06.051Z,96512.63
2023-03-03T23:43:07.681Z,96504.81
2023-03-03T23:46:09.931Z,96516.25
2023-03-03T23:49:11.591Z,96508.56
2023-03-03T23:52:13.115Z,96516.53
2023-03-03T23:55:15.013Z,96516.69
2023-03-03T23:58:17.362Z,96513.34
